sensor_id;sensor_type;location;lat;lon;timestamp;temperature;humidity
65864;SHT30;52639;51.180;20.460;2023-11-19T00:02:36;-0.16;98.08
65864;SHT30;52639;51.180;20.460;2023-11-19T00:06:39;-0.20;97.99
65864;SHT30;52639;51.180;20.460;2023-11-19T00:10:43;-0.13;98.15
65864;SHT30;52639;51.180;20.460;2023-11-19T00:14:49;-0.09;98.18
65864;SHT30;52639;51.180;20.460;2023-11-19T00:18:53;-0.10;98.00
65864;SHT30;52639;51.180;20.460;2023-11-19T00:22:56;-0.07;98.00
65864;SHT30;52639;51.180;20.460;2023-11-19T00:26:59;-0.14;97.97
65864;SHT30;52639;51.180;20.460;2023-11-19T00:31:04;-0.16;97.98
65864;SHT30;52639;51.180;20.460;2023-11-19T00:35:08;-0.11;98.07
65864;SHT30;52639;51.180;20.460;2023-11-19T00:39:11;-0.10;98.09
65864;SHT30;52639;51.180;20.460;2023-11-19T00:43:16;-0.09;97.97
65864;SHT30;52639;51.180;20.460;2023-11-19T00:47:21;-0.10;98.04
65864;SHT30;52639;51.180;20.460;2023-11-19T00:51:24;-0.11;98.01
65864;SHT30;52639;51.180;20.460;2023-11-19T00:55:27;-0.13;97.86
65864;SHT30;52639;51.180;20.460;2023-11-19T00:59:30;-0.20;97.77
65864;SHT30;52639;51.180;20.460;2023-11-19T01:03:38;-0.18;98.02
65864;SHT30;52639;51.180;20.460;2023-11-19T01:07:41;-0.20;97.98
65864;SHT30;52639;51.180;20.460;2023-11-19T01:11:44;-0.17;97.93
65864;SHT30;52639;51.180;20.460;2023-11-19T01:15:47;-0.23;98.01
65864;SHT30;52639;51.180;20.460;2023-11-19T01:19:52;-0.20;98.03
65864;SHT30;52639;51.180;20.460;2023-11-19T01:23:54;-0.18;97.96
65864;SHT30;52639;51.180;20.460;2023-11-19T01:27:57;-0.16;97.94
65864;SHT30;52639;51.180;20.460;2023-11-19T01:32:00;-0.16;98.03
65864;SHT30;52639;51.180;20.460;2023-11-19T01:36:05;-0.18;97.72
65864;SHT30;52639;51.180;20.460;2023-11-19T01:40:12;-0.21;97.89
65864;SHT30;52639;51.180;20.460;2023-11-19T01:44:15;-0.21;97.75
65864;SHT30;52639;51.180;20.460;2023-11-19T01:48:18;-0.20;98.07
65864;SHT30;52639;51.180;20.460;2023-11-19T01:52:22;-0.20;98.03
65864;SHT30;52639;51.180;20.460;2023-11-19T01:56:26;-0.16;97.88
65864;SHT30;52639;51.180;20.460;2023-11-19T02:00:30;-0.17;97.83
65864;SHT30;52639;51.180;20.460;2023-11-19T02:04:36;-0.16;98.01
65864;SHT30;52639;51.180;20.460;2023-11-19T02:08:42;-0.17;97.69
65864;SHT30;52639;51.180;20.460;2023-11-19T02:12:45;-0.20;97.76
65864;SHT30;52639;51.180;20.460;2023-11-19T02:16:49;-0.21;97.94
65864;SHT30;52639;51.180;20.460;2023-11-19T02:20:52;-0.24;97.75
65864;SHT30;52639;51.180;20.460;2023-11-19T02:25:00;-0.23;98.04
65864;SHT30;52639;51.180;20.460;2023-11-19T02:29:05;-0.18;98.02
65864;SHT30;52639;51.180;20.460;2023-11-19T02:33:09;-0.14;98.01
65864;SHT30;52639;51.180;20.460;2023-11-19T02:37:11;-0.16;97.79
65864;SHT30;52639;51.180;20.460;2023-11-19T02:41:16;-0.17;97.74
65864;SHT30;52639;51.180;20.460;2023-11-19T02:45:22;-0.10;97.97
65864;SHT30;52639;51.180;20.460;2023-11-19T02:49:25;-0.09;97.78
65864;SHT30;52639;51.180;20.460;2023-11-19T02:53:28;-0.10;97.76
65864;SHT30;52639;51.180;20.460;2023-11-19T02:57:31;-0.11;97.83
65864;SHT30;52639;51.180;20.460;2023-11-19T03:01:36;-0.11;97.77
65864;SHT30;52639;51.180;20.460;2023-11-19T03:05:45;-0.16;97.71
65864;SHT30;52639;51.180;20.460;2023-11-19T03:09:48;-0.14;97.87
65864;SHT30;52639;51.180;20.460;2023-11-19T03:13:51;-0.11;97.86
65864;SHT30;52639;51.180;20.460;2023-11-19T03:17:55;-0.10;97.90
65864;SHT30;52639;51.180;20.460;2023-11-19T03:21:58;-0.09;97.84
65864;SHT30;52639;51.180;20.460;2023-11-19T03:26:02;-0.10;97.76
65864;SHT30;52639;51.180;20.460;2023-11-19T03:30:08;-0.14;97.81
65864;SHT30;52639;51.180;20.460;2023-11-19T03:34:16;-0.10;97.88
65864;SHT30;52639;51.180;20.460;2023-11-19T03:38:20;-0.11;97.85
65864;SHT30;52639;51.180;20.460;2023-11-19T03:42:23;-0.10;97.86
65864;SHT30;52639;51.180;20.460;2023-11-19T03:46:27;-0.10;98.03
65864;SHT30;52639;51.180;20.460;2023-11-19T03:50:35;-0.07;97.93
65864;SHT30;52639;51.180;20.460;2023-11-19T03:54:37;-0.04;97.96
65864;SHT30;52639;51.180;20.460;2023-11-19T03:58:40;-0.04;97.95
65864;SHT30;52639;51.180;20.460;2023-11-19T04:02:43;-0.02;97.86
65864;SHT30;52639;51.180;20.460;2023-11-19T04:06:49;-0.09;97.78
65864;SHT30;52639;51.180;20.460;2023-11-19T04:10:52;-0.07;97.96
65864;SHT30;52639;51.180;20.460;2023-11-19T04:14:55;-0.07;97.80
65864;SHT30;52639;51.180;20.460;2023-11-19T04:18:58;-0.07;97.94
65864;SHT30;52639;51.180;20.460;2023-11-19T04:23:03;-0.07;97.82
65864;SHT30;52639;51.180;20.460;2023-11-19T04:27:05;-0.11;97.89
65864;SHT30;52639;51.180;20.460;2023-11-19T04:31:09;-0.11;97.88
65864;SHT30;52639;51.180;20.460;2023-11-19T04:35:12;-0.16;97.90
65864;SHT30;52639;51.180;20.460;2023-11-19T04:39:16;-0.16;97.81
65864;SHT30;52639;51.180;20.460;2023-11-19T04:43:20;-0.13;97.84
65864;SHT30;52639;51.180;20.460;2023-11-19T04:47:23;-0.17;97.77
65864;SHT30;52639;51.180;20.460;2023-11-19T04:51:26;-0.17;97.87
65864;SHT30;52639;51.180;20.460;2023-11-19T04:55:30;-0.14;98.04
65864;SHT30;52639;51.180;20.460;2023-11-19T04:59:34;-0.16;97.82
65864;SHT30;52639;51.180;20.460;2023-11-19T05:03:39;-0.13;97.89
65864;SHT30;52639;51.180;20.460;2023-11-19T05:07:42;-0.14;97.88
65864;SHT30;52639;51.180;20.460;2023-11-19T05:11:47;-0.17;97.83
65864;SHT30;52639;51.180;20.460;2023-11-19T05:15:52;-0.14;97.82
65864;SHT30;52639;51.180;20.460;2023-11-19T05:19:55;-0.16;97.73
65864;SHT30;52639;51.180;20.460;2023-11-19T05:23:57;-0.11;97.85
65864;SHT30;52639;51.180;20.460;2023-11-19T05:28:02;-0.14;97.80
65864;SHT30;52639;51.180;20.460;2023-11-19T05:32:05;-0.10;97.81
65864;SHT30;52639;51.180;20.460;2023-11-19T05:36:11;-0.11;97.78
65864;SHT30;52639;51.180;20.460;2023-11-19T05:40:15;-0.10;97.83
65864;SHT30;52639;51.180;20.460;2023-11-19T05:44:20;-0.10;97.69
65864;SHT30;52639;51.180;20.460;2023-11-19T05:48:25;-0.10;97.75
65864;SHT30;52639;51.180;20.460;2023-11-19T05:52:29;-0.06;97.82
65864;SHT30;52639;51.180;20.460;2023-11-19T05:56:34;-0.06;97.66
65864;SHT30;52639;51.180;20.460;2023-11-19T06:00:39;-0.14;97.67
65864;SHT30;52639;51.180;20.460;2023-11-19T06:04:42;-0.10;97.83
65864;SHT30;52639;51.180;20.460;2023-11-19T06:08:49;-0.06;97.81
65864;SHT30;52639;51.180;20.460;2023-11-19T06:12:51;-0.07;97.78
65864;SHT30;52639;51.180;20.460;2023-11-19T06:16:58;-0.06;97.79
65864;SHT30;52639;51.180;20.460;2023-11-19T06:21:01;-0.06;97.74
65864;SHT30;52639;51.180;20.460;2023-11-19T06:25:05;-0.06;97.70
65864;SHT30;52639;51.180;20.460;2023-11-19T06:29:09;-0.07;97.65
65864;SHT30;52639;51.180;20.460;2023-11-19T06:33:14;-0.06;97.65
65864;SHT30;52639;51.180;20.460;2023-11-19T06:37:17;0.01;97.75
65864;SHT30;52639;51.180;20.460;2023-11-19T06:41:20;0.00;97.65
65864;SHT30;52639;51.180;20.460;2023-11-19T06:45:23;0.04;97.70
65864;SHT30;52639;51.180;20.460;2023-11-19T06:49:28;0.07;97.57
65864;SHT30;52639;51.180;20.460;2023-11-19T06:53:32;0.04;97.54
65864;SHT30;52639;51.180;20.460;2023-11-19T06:57:34;0.06;97.58
65864;SHT30;52639;51.180;20.460;2023-11-19T07:01:38;0.11;97.56
65864;SHT30;52639;51.180;20.460;2023-11-19T07:05:43;0.14;97.55
65864;SHT30;52639;51.180;20.460;2023-11-19T07:09:46;0.20;97.47
65864;SHT30;52639;51.180;20.460;2023-11-19T07:13:49;0.20;97.40
65864;SHT30;52639;51.180;20.460;2023-11-19T07:17:52;0.21;97.40
65864;SHT30;52639;51.180;20.460;2023-11-19T07:21:57;0.24;97.39
65864;SHT30;52639;51.180;20.460;2023-11-19T07:26:00;0.28;97.20
65864;SHT30;52639;51.180;20.460;2023-11-19T07:30:04;0.24;97.26
65864;SHT30;52639;51.180;20.460;2023-11-19T07:34:09;0.28;97.33
65864;SHT30;52639;51.180;20.460;2023-11-19T07:38:15;0.32;97.34
65864;SHT30;52639;51.180;20.460;2023-11-19T07:42:18;0.36;97.21
65864;SHT30;52639;51.180;20.460;2023-11-19T07:46:21;0.34;97.17
65864;SHT30;52639;51.180;20.460;2023-11-19T07:50:26;0.32;97.14
65864;SHT30;52639;51.180;20.460;2023-11-19T07:54:31;0.37;97.22
65864;SHT30;52639;51.180;20.460;2023-11-19T07:58:34;0.38;97.15
65864;SHT30;52639;51.180;20.460;2023-11-19T08:02:38;0.42;97.08
65864;SHT30;52639;51.180;20.460;2023-11-19T08:06:41;0.47;97.15
65864;SHT30;52639;51.180;20.460;2023-11-19T08:10:47;0.47;97.15
65864;SHT30;52639;51.180;20.460;2023-11-19T08:14:53;0.55;96.99
65864;SHT30;52639;51.180;20.460;2023-11-19T08:18:55;0.66;96.79
65864;SHT30;52639;51.180;20.460;2023-11-19T08:22:59;0.76;96.49
65864;SHT30;52639;51.180;20.460;2023-11-19T08:27:04;0.73;96.60
65864;SHT30;52639;51.180;20.460;2023-11-19T08:31:08;0.69;96.68
65864;SHT30;52639;51.180;20.460;2023-11-19T08:35:11;0.61;96.94
65864;SHT30;52639;51.180;20.460;2023-11-19T08:39:14;0.65;97.14
65864;SHT30;52639;51.180;20.460;2023-11-19T08:43:23;0.62;96.97
65864;SHT30;52639;51.180;20.460;2023-11-19T08:47:26;0.52;97.16
65864;SHT30;52639;51.180;20.460;2023-11-19T08:51:29;0.54;97.45
65864;SHT30;52639;51.180;20.460;2023-11-19T08:55:32;0.66;97.00
65864;SHT30;52639;51.180;20.460;2023-11-19T08:59:40;0.82;96.96
65864;SHT30;52639;51.180;20.460;2023-11-19T09:03:43;0.73;96.72
65864;SHT30;52639;51.180;20.460;2023-11-19T09:07:46;0.79;96.81
65864;SHT30;52639;51.180;20.460;2023-11-19T09:11:51;0.76;96.90
65864;SHT30;52639;51.180;20.460;2023-11-19T09:16:00;1.03;96.48
65864;SHT30;52639;51.180;20.460;2023-11-19T09:20:06;1.33;96.60
65864;SHT30;52639;51.180;20.460;2023-11-19T09:24:09;2.56;92.79
65864;SHT30;52639;51.180;20.460;2023-11-19T09:28:13;3.23;93.05
65864;SHT30;52639;51.180;20.460;2023-11-19T09:32:21;2.92;92.74
65864;SHT30;52639;51.180;20.460;2023-11-19T09:36:24;2.59;94.82
65864;SHT30;52639;51.180;20.460;2023-11-19T09:40:28;2.05;94.82
65864;SHT30;52639;51.180;20.460;2023-11-19T09:44:33;1.75;95.84
65864;SHT30;52639;51.180;20.460;2023-11-19T09:48:38;1.80;96.83
65864;SHT30;52639;51.180;20.460;2023-11-19T09:52:42;1.64;96.61
65864;SHT30;52639;51.180;20.460;2023-11-19T09:56:48;1.67;96.91
65864;SHT30;52639;51.180;20.460;2023-11-19T10:00:56;1.85;97.26
65864;SHT30;52639;51.180;20.460;2023-11-19T10:05:04;1.81;96.68
65864;SHT30;52639;51.180;20.460;2023-11-19T10:09:11;1.87;96.60
65864;SHT30;52639;51.180;20.460;2023-11-19T10:13:26;1.88;96.56
65864;SHT30;52639;51.180;20.460;2023-11-19T10:17:32;2.01;96.66
65864;SHT30;52639;51.180;20.460;2023-11-19T10:21:37;2.00;95.81
65864;SHT30;52639;51.180;20.460;2023-11-19T10:25:41;2.15;96.29
65864;SHT30;52639;51.180;20.460;2023-11-19T10:29:47;2.07;95.89
65864;SHT30;52639;51.180;20.460;2023-11-19T10:33:51;2.11;96.02
65864;SHT30;52639;51.180;20.460;2023-11-19T10:38:13;2.01;95.68
65864;SHT30;52639;51.180;20.460;2023-11-19T10:42:18;2.17;96.33
65864;SHT30;52639;51.180;20.460;2023-11-19T10:46:21;2.01;95.95
65864;SHT30;52639;51.180;20.460;2023-11-19T10:50:26;2.08;96.08
65864;SHT30;52639;51.180;20.460;2023-11-19T10:54:34;2.38;95.75
65864;SHT30;52639;51.180;20.460;2023-11-19T10:58:44;2.89;95.38
65864;SHT30;52639;51.180;20.460;2023-11-19T11:02:50;3.17;94.50
65864;SHT30;52639;51.180;20.460;2023-11-19T11:06:59;3.30;93.54
65864;SHT30;52639;51.180;20.460;2023-11-19T11:11:07;3.13;93.73
65864;SHT30;52639;51.180;20.460;2023-11-19T11:15:11;2.87;94.14
65864;SHT30;52639;51.180;20.460;2023-11-19T11:19:16;2.85;95.29
65864;SHT30;52639;51.180;20.460;2023-11-19T11:28:06;2.86;94.22
65864;SHT30;52639;51.180;20.460;2023-11-19T11:32:20;2.86;95.03
65864;SHT30;52639;51.180;20.460;2023-11-19T11:36:29;2.87;93.98
65864;SHT30;52639;51.180;20.460;2023-11-19T11:40:35;2.86;94.48
65864;SHT30;52639;51.180;20.460;2023-11-19T11:45:04;2.65;94.75
65864;SHT30;52639;51.180;20.460;2023-11-19T11:49:10;2.42;94.99
65864;SHT30;52639;51.180;20.460;2023-11-19T11:53:16;2.34;95.12
65864;SHT30;52639;51.180;20.460;2023-11-19T11:57:19;2.22;94.97
65864;SHT30;52639;51.180;20.460;2023-11-19T12:01:27;2.25;95.47
65864;SHT30;52639;51.180;20.460;2023-11-19T12:05:33;2.26;95.63
65864;SHT30;52639;51.180;20.460;2023-11-19T12:09:39;2.22;95.93
65864;SHT30;52639;51.180;20.460;2023-11-19T12:14:04;2.14;95.69
65864;SHT30;52639;51.180;20.460;2023-11-19T12:18:23;2.07;95.60
65864;SHT30;52639;51.180;20.460;2023-11-19T12:22:30;2.11;95.72
65864;SHT30;52639;51.180;20.460;2023-11-19T12:26:49;1.98;95.49
65864;SHT30;52639;51.180;20.460;2023-11-19T12:31:08;1.98;95.82
65864;SHT30;52639;51.180;20.460;2023-11-19T12:35:27;1.91;95.77
65864;SHT30;52639;51.180;20.460;2023-11-19T12:39:31;1.75;96.03
65864;SHT30;52639;51.180;20.460;2023-11-19T12:43:35;1.60;95.73
65864;SHT30;52639;51.180;20.460;2023-11-19T12:47:42;1.39;96.08
65864;SHT30;52639;51.180;20.460;2023-11-19T12:51:50;1.19;96.09
65864;SHT30;52639;51.180;20.460;2023-11-19T12:55:54;0.99;96.21
65864;SHT30;52639;51.180;20.460;2023-11-19T12:59:57;0.91;96.40
65864;SHT30;52639;51.180;20.460;2023-11-19T13:04:00;0.78;96.50
65864;SHT30;52639;51.180;20.460;2023-11-19T13:08:06;0.71;96.59
65864;SHT30;52639;51.180;20.460;2023-11-19T13:12:14;0.62;96.62
65864;SHT30;52639;51.180;20.460;2023-11-19T13:16:19;0.54;96.67
65864;SHT30;52639;51.180;20.460;2023-11-19T13:20:22;0.47;96.82
65864;SHT30;52639;51.180;20.460;2023-11-19T13:24:29;0.44;96.95
65864;SHT30;52639;51.180;20.460;2023-11-19T13:28:37;0.47;96.94
65864;SHT30;52639;51.180;20.460;2023-11-19T13:32:47;0.44;96.78
65864;SHT30;52639;51.180;20.460;2023-11-19T13:36:50;0.42;96.92
65864;SHT30;52639;51.180;20.460;2023-11-19T13:40:55;0.41;96.90
65864;SHT30;52639;51.180;20.460;2023-11-19T13:45:06;0.42;96.96
65864;SHT30;52639;51.180;20.460;2023-11-19T13:49:12;0.42;96.97
65864;SHT30;52639;51.180;20.460;2023-11-19T13:53:16;0.40;97.01
65864;SHT30;52639;51.180;20.460;2023-11-19T13:57:22;0.40;96.87
65864;SHT30;52639;51.180;20.460;2023-11-19T14:01:30;0.42;97.00
65864;SHT30;52639;51.180;20.460;2023-11-19T14:05:43;0.37;96.86
65864;SHT30;52639;51.180;20.460;2023-11-19T14:09:48;0.38;97.06
65864;SHT30;52639;51.180;20.460;2023-11-19T14:13:53;0.36;97.05
65864;SHT30;52639;51.180;20.460;2023-11-19T14:17:56;0.37;97.16
65864;SHT30;52639;51.180;20.460;2023-11-19T14:22:00;0.41;97.19
65864;SHT30;52639;51.180;20.460;2023-11-19T14:26:04;0.41;97.20
65864;SHT30;52639;51.180;20.460;2023-11-19T14:30:12;0.38;97.15
65864;SHT30;52639;51.180;20.460;2023-11-19T14:34:17;0.40;97.12
65864;SHT30;52639;51.180;20.460;2023-11-19T14:38:25;0.44;97.10
65864;SHT30;52639;51.180;20.460;2023-11-19T14:42:30;0.42;97.04
65864;SHT30;52639;51.180;20.460;2023-11-19T14:46:38;0.42;97.01
65864;SHT30;52639;51.180;20.460;2023-11-19T14:50:47;0.42;97.00
65864;SHT30;52639;51.180;20.460;2023-11-19T14:54:56;0.41;97.01
65864;SHT30;52639;51.180;20.460;2023-11-19T14:59:11;0.40;97.15
65864;SHT30;52639;51.180;20.460;2023-11-19T15:03:20;0.41;97.04
65864;SHT30;52639;51.180;20.460;2023-11-19T15:07:27;0.41;97.11
65864;SHT30;52639;51.180;20.460;2023-11-19T15:11:43;0.38;97.16
65864;SHT30;52639;51.180;20.460;2023-11-19T15:15:51;0.40;97.14
65864;SHT30;52639;51.180;20.460;2023-11-19T15:19:56;0.42;97.06
65864;SHT30;52639;51.180;20.460;2023-11-19T15:24:02;0.40;97.27
65864;SHT30;52639;51.180;20.460;2023-11-19T15:28:14;0.41;97.26
65864;SHT30;52639;51.180;20.460;2023-11-19T15:32:17;0.41;97.15
65864;SHT30;52639;51.180;20.460;2023-11-19T15:36:25;0.44;97.14
65864;SHT30;52639;51.180;20.460;2023-11-19T15:40:34;0.47;97.15
65864;SHT30;52639;51.180;20.460;2023-11-19T15:44:54;0.45;97.01
65864;SHT30;52639;51.180;20.460;2023-11-19T15:49:08;0.42;97.07
65864;SHT30;52639;51.180;20.460;2023-11-19T15:53:21;0.47;97.18
65864;SHT30;52639;51.180;20.460;2023-11-19T15:57:50;0.52;97.44
65864;SHT30;52639;51.180;20.460;2023-11-19T16:01:53;0.50;97.57
65864;SHT30;52639;51.180;20.460;2023-11-19T16:05:59;0.55;97.38
65864;SHT30;52639;51.180;20.460;2023-11-19T16:10:37;0.54;97.16
65864;SHT30;52639;51.180;20.460;2023-11-19T16:15:44;0.54;97.37
65864;SHT30;52639;51.180;20.460;2023-11-19T16:20:30;0.57;97.20
65864;SHT30;52639;51.180;20.460;2023-11-19T16:25:12;0.55;97.33
65864;SHT30;52639;51.180;20.460;2023-11-19T16:29:44;0.55;97.40
65864;SHT30;52639;51.180;20.460;2023-11-19T16:33:48;0.54;97.27
65864;SHT30;52639;51.180;20.460;2023-11-19T16:37:52;0.58;97.43
65864;SHT30;52639;51.180;20.460;2023-11-19T16:41:56;0.58;97.43
65864;SHT30;52639;51.180;20.460;2023-11-19T16:46:07;0.60;97.26
65864;SHT30;52639;51.180;20.460;2023-11-19T16:50:12;0.57;97.23
65864;SHT30;52639;51.180;20.460;2023-11-19T16:54:18;0.60;97.35
65864;SHT30;52639;51.180;20.460;2023-11-19T16:58:25;0.61;97.19
65864;SHT30;52639;51.180;20.460;2023-11-19T17:02:34;0.61;97.28
65864;SHT30;52639;51.180;20.460;2023-11-19T17:06:38;0.62;97.24
65864;SHT30;52639;51.180;20.460;2023-11-19T17:10:44;0.61;97.36
65864;SHT30;52639;51.180;20.460;2023-11-19T17:14:48;0.61;97.60
65864;SHT30;52639;51.180;20.460;2023-11-19T17:18:58;0.61;97.53
65864;SHT30;52639;51.180;20.460;2023-11-19T17:23:03;0.62;97.45
65864;SHT30;52639;51.180;20.460;2023-11-19T17:27:07;0.65;97.32
65864;SHT30;52639;51.180;20.460;2023-11-19T17:31:11;0.65;97.23
65864;SHT30;52639;51.180;20.460;2023-11-19T17:35:18;0.65;97.41
65864;SHT30;52639;51.180;20.460;2023-11-19T17:39:26;0.65;97.39
65864;SHT30;52639;51.180;20.460;2023-11-19T17:43:31;0.65;97.37
65864;SHT30;52639;51.180;20.460;2023-11-19T17:47:34;0.68;97.41
65864;SHT30;52639;51.180;20.460;2023-11-19T17:51:40;0.69;97.49
65864;SHT30;52639;51.180;20.460;2023-11-19T17:55:45;0.69;97.35
65864;SHT30;52639;51.180;20.460;2023-11-19T17:59:50;0.72;97.45
65864;SHT30;52639;51.180;20.460;2023-11-19T18:03:55;0.72;97.54
65864;SHT30;52639;51.180;20.460;2023-11-19T18:08:03;0.71;97.38
65864;SHT30;52639;51.180;20.460;2023-11-19T18:12:10;0.73;97.37
65864;SHT30;52639;51.180;20.460;2023-11-19T18:16:14;0.73;97.44
65864;SHT30;52639;51.180;20.460;2023-11-19T18:20:19;0.73;97.38
65864;SHT30;52639;51.180;20.460;2023-11-19T18:24:25;0.73;97.38
65864;SHT30;52639;51.180;20.460;2023-11-19T18:28:29;0.73;97.39
65864;SHT30;52639;51.180;20.460;2023-11-19T18:32:36;0.76;97.44
65864;SHT30;52639;51.180;20.460;2023-11-19T18:36:44;0.76;97.38
65864;SHT30;52639;51.180;20.460;2023-11-19T18:40:52;0.75;97.41
65864;SHT30;52639;51.180;20.460;2023-11-19T18:45:00;0.75;97.47
65864;SHT30;52639;51.180;20.460;2023-11-19T18:49:06;0.76;97.51
65864;SHT30;52639;51.180;20.460;2023-11-19T18:53:12;0.82;97.44
65864;SHT30;52639;51.180;20.460;2023-11-19T18:57:21;0.85;97.42
65864;SHT30;52639;51.180;20.460;2023-11-19T19:01:26;0.88;97.52
65864;SHT30;52639;51.180;20.460;2023-11-19T19:05:33;0.89;97.50
65864;SHT30;52639;51.180;20.460;2023-11-19T19:09:39;0.91;97.47
65864;SHT30;52639;51.180;20.460;2023-11-19T19:13:46;1.05;97.56
65864;SHT30;52639;51.180;20.460;2023-11-19T19:17:51;1.09;97.31
65864;SHT30;52639;51.180;20.460;2023-11-19T19:21:56;1.07;97.14
65864;SHT30;52639;51.180;20.460;2023-11-19T19:26:02;1.07;97.32
65864;SHT30;52639;51.180;20.460;2023-11-19T19:30:12;1.07;97.16
65864;SHT30;52639;51.180;20.460;2023-11-19T19:34:18;1.07;97.21
65864;SHT30;52639;51.180;20.460;2023-11-19T19:38:23;1.07;97.23
65864;SHT30;52639;51.180;20.460;2023-11-19T19:42:28;1.06;97.22
65864;SHT30;52639;51.180;20.460;2023-11-19T19:46:33;1.02;97.25
65864;SHT30;52639;51.180;20.460;2023-11-19T19:50:36;1.03;97.32
65864;SHT30;52639;51.180;20.460;2023-11-19T19:54:41;0.97;97.22
65864;SHT30;52639;51.180;20.460;2023-11-19T19:58:45;0.95;97.40
65864;SHT30;52639;51.180;20.460;2023-11-19T20:02:51;0.93;97.51
65864;SHT30;52639;51.180;20.460;2023-11-19T20:06:55;0.97;97.57
65864;SHT30;52639;51.180;20.460;2023-11-19T20:10:59;0.97;97.46
65864;SHT30;52639;51.180;20.460;2023-11-19T20:15:03;0.97;97.65
65864;SHT30;52639;51.180;20.460;2023-11-19T20:19:09;1.03;97.64
65864;SHT30;52639;51.180;20.460;2023-11-19T20:23:12;0.99;97.55
65864;SHT30;52639;51.180;20.460;2023-11-19T20:27:16;1.02;97.54
65864;SHT30;52639;51.180;20.460;2023-11-19T20:31:19;1.05;97.55
65864;SHT30;52639;51.180;20.460;2023-11-19T20:35:24;1.07;97.56
65864;SHT30;52639;51.180;20.460;2023-11-19T20:39:28;1.12;97.51
65864;SHT30;52639;51.180;20.460;2023-11-19T20:43:31;1.13;97.51
65864;SHT30;52639;51.180;20.460;2023-11-19T20:47:34;1.20;97.72
65864;SHT30;52639;51.180;20.460;2023-11-19T20:51:40;1.27;97.61
65864;SHT30;52639;51.180;20.460;2023-11-19T20:55:43;1.29;97.42
65864;SHT30;52639;51.180;20.460;2023-11-19T20:59:47;1.29;97.41
65864;SHT30;52639;51.180;20.460;2023-11-19T21:03:50;1.29;97.42
65864;SHT30;52639;51.180;20.460;2023-11-19T21:07:55;1.27;97.59
65864;SHT30;52639;51.180;20.460;2023-11-19T21:12:01;1.32;97.72
65864;SHT30;52639;51.180;20.460;2023-11-19T21:16:06;1.35;97.64
65864;SHT30;52639;51.180;20.460;2023-11-19T21:20:10;1.43;97.61
65864;SHT30;52639;51.180;20.460;2023-11-19T21:24:16;1.43;97.59
65864;SHT30;52639;51.180;20.460;2023-11-19T21:28:19;1.44;97.84
65864;SHT30;52639;51.180;20.460;2023-11-19T21:32:22;1.46;97.67
65864;SHT30;52639;51.180;20.460;2023-11-19T21:36:25;1.57;97.85
65864;SHT30;52639;51.180;20.460;2023-11-19T21:40:29;1.66;97.56
65864;SHT30;52639;51.180;20.460;2023-11-19T21:44:33;1.67;97.65
65864;SHT30;52639;51.180;20.460;2023-11-19T21:48:36;1.70;97.61
65864;SHT30;52639;51.180;20.460;2023-11-19T21:52:39;1.87;98.46
65864;SHT30;52639;51.180;20.460;2023-11-19T21:56:43;1.97;97.96
65864;SHT30;52639;51.180;20.460;2023-11-19T22:00:47;2.42;98.31
65864;SHT30;52639;51.180;20.460;2023-11-19T22:04:50;2.77;97.65
65864;SHT30;52639;51.180;20.460;2023-11-19T22:08:53;2.99;97.52
65864;SHT30;52639;51.180;20.460;2023-11-19T22:12:58;3.16;97.35
65864;SHT30;52639;51.180;20.460;2023-11-19T22:17:01;3.24;97.17
65864;SHT30;52639;51.180;20.460;2023-11-19T22:21:05;3.37;97.25
65864;SHT30;52639;51.180;20.460;2023-11-19T22:25:08;3.45;97.25
65864;SHT30;52639;51.180;20.460;2023-11-19T22:29:12;3.57;96.93
65864;SHT30;52639;51.180;20.460;2023-11-19T22:33:15;3.58;96.94
65864;SHT30;52639;51.180;20.460;2023-11-19T22:37:18;3.74;96.82
65864;SHT30;52639;51.180;20.460;2023-11-19T22:41:22;3.74;96.89
65864;SHT30;52639;51.180;20.460;2023-11-19T22:45:27;3.78;96.77
65864;SHT30;52639;51.180;20.460;2023-11-19T22:49:29;3.88;96.97
65864;SHT30;52639;51.180;20.460;2023-11-19T22:53:32;3.92;97.08
65864;SHT30;52639;51.180;20.460;2023-11-19T22:57:35;4.06;97.09
65864;SHT30;52639;51.180;20.460;2023-11-19T23:01:40;4.10;97.04
65864;SHT30;52639;51.180;20.460;2023-11-19T23:05:43;4.15;96.94
65864;SHT30;52639;51.180;20.460;2023-11-19T23:09:47;4.26;97.13
65864;SHT30;52639;51.180;20.460;2023-11-19T23:13:50;4.28;97.00
65864;SHT30;52639;51.180;20.460;2023-11-19T23:17:54;4.35;97.17
65864;SHT30;52639;51.180;20.460;2023-11-19T23:21:58;4.50;97.48
65864;SHT30;52639;51.180;20.460;2023-11-19T23:26:04;4.60;97.01
65864;SHT30;52639;51.180;20.460;2023-11-19T23:30:08;4.70;97.09
65864;SHT30;52639;51.180;20.460;2023-11-19T23:34:13;4.74;97.03
65864;SHT30;52639;51.180;20.460;2023-11-19T23:38:16;4.80;97.21
65864;SHT30;52639;51.180;20.460;2023-11-19T23:42:19;4.79;97.10
65864;SHT30;52639;51.180;20.460;2023-11-19T23:46:23;4.91;97.27
65864;SHT30;52639;51.180;20.460;2023-11-19T23:50:28;4.98;97.18
65864;SHT30;52639;51.180;20.460;2023-11-19T23:54:31;5.00;97.12
65864;SHT30;52639;51.180;20.460;2023-11-19T23:58:34;5.00;97.16
